Time;durP1;ratioP1;P1;durP2;ratioP2;P2;SDS_P1;SDS_P2;PMS_P1;PMS_P2;Temp;Humidity;BMP_temperature;BMP_pressure;BME280_temperature;BME280_humidity;BME280_pressure;Samples;Min_cycle;Max_cycle;Signal;HPM_P1;HPM_P2
2024/04/19 00:01:13;;;;;;;3.87;1.17;;;;;;;;;;5416327;26;20439;-87
2024/04/19 00:03:39;;;;;;;4.20;1.80;;;;;;;;;;5416639;26;20475;-85
2024/04/19 00:06:05;;;;;;;9.30;1.57;;;;;;;;;;5416486;26;20448;-81
2024/04/19 00:08:31;;;;;;;3.47;0.90;;;;;;;;;;5416789;26;20552;-85
2024/04/19 00:10:57;;;;;;;4.67;1.40;;;;;;;;;;5416719;26;21023;-82
2024/04/19 00:13:25;;;;;;;5.97;1.63;;;;;;;;;;5415085;26;20859;-78
2024/04/19 00:15:51;;;;;;;8.30;2.07;;;;;;;;;;5418275;26;20494;-88
2024/04/19 00:18:16;;;;;;;5.00;1.20;;;;;;;;;;5419663;26;20857;-85
2024/04/19 00:20:42;;;;;;;5.13;1.17;;;;;;;;;;5419196;26;20520;-84
2024/04/19 00:23:08;;;;;;;3.83;1.33;;;;;;;;;;5420233;26;20530;-87
2024/04/19 00:25:35;;;;;;;6.57;1.07;;;;;;;;;;5420416;26;20443;-88
2024/04/19 00:28:01;;;;;;;6.73;1.50;;;;;;;;;;5420732;26;20502;-85
2024/04/19 00:30:27;;;;;;;7.00;1.97;;;;;;;;;;5418470;26;20459;-88
2024/04/19 00:32:53;;;;;;;5.23;1.73;;;;;;;;;;5420175;26;20514;-89
2024/04/19 00:35:22;;;;;;;4.43;1.20;;;;;;;;;;5419868;26;21016;-79
2024/04/19 00:37:48;;;;;;;5.00;1.10;;;;;;;;;;5420117;26;20502;-81
2024/04/19 00:40:14;;;;;;;5.47;1.73;;;;;;;;;;5418122;26;20967;-79
2024/04/19 00:42:39;;;;;;;3.50;1.03;;;;;;;;;;5419454;26;20454;-84
2024/04/19 00:45:21;;;;;;;6.73;1.07;;;;;;;;;;5419922;26;20445;-85
2024/04/19 00:47:47;;;;;;;4.40;1.00;;;;;;;;;;5388716;26;20437;-87
2024/04/19 00:50:13;;;;;;;5.73;0.80;;;;;;;;;;5419484;26;20501;-82
2024/04/19 00:52:39;;;;;;;3.67;0.87;;;;;;;;;;5419935;26;20445;-87
2024/04/19 00:55:05;;;;;;;3.33;1.67;;;;;;;;;;5420004;26;20568;-88
2024/04/19 00:57:31;;;;;;;3.87;1.63;;;;;;;;;;5419840;26;20455;-87
2024/04/19 00:59:57;;;;;;;3.67;1.27;;;;;;;;;;5419965;26;20570;-79
2024/04/19 01:02:23;;;;;;;3.17;1.27;;;;;;;;;;5418328;26;21098;-87
2024/04/19 01:04:49;;;;;;;3.57;0.63;;;;;;;;;;5419824;26;20504;-85
2024/04/19 01:07:15;;;;;;;4.80;1.03;;;;;;;;;;5418900;26;20537;-84
2024/04/19 01:09:41;;;;;;;4.50;0.93;;;;;;;;;;5419797;26;20497;-81
2024/04/19 01:12:08;;;;;;;9.57;0.83;;;;;;;;;;5419611;26;20448;-81
2024/04/19 01:14:34;;;;;;;3.20;0.70;;;;;;;;;;5417525;26;20445;-82
2024/04/19 01:17:00;;;;;;;1.93;0.80;;;;;;;;;;5419478;26;20776;-85
2024/04/19 01:19:25;;;;;;;2.00;0.80;;;;;;;;;;5418719;26;20948;-84
2024/04/19 01:21:51;;;;;;;4.10;1.00;;;;;;;;;;5418740;26;20471;-88
2024/04/19 01:24:39;;;;;;;3.00;1.00;;;;;;;;;;5417846;26;20454;-86
2024/04/19 01:27:08;;;;;;;5.40;1.47;;;;;;;;;;5419421;26;20450;-79
2024/04/19 01:29:36;;;;;;;3.40;0.60;;;;;;;;;;5417246;26;20502;-87
2024/04/19 01:32:03;;;;;;;4.57;0.70;;;;;;;;;;5419544;26;20489;-79
2024/04/19 01:34:32;;;;;;;4.63;0.80;;;;;;;;;;5417532;26;20463;-85
2024/04/19 01:36:58;;;;;;;4.50;0.70;;;;;;;;;;5418960;26;20453;-87
2024/04/19 01:39:27;;;;;;;2.47;0.50;;;;;;;;;;5419376;26;20445;-85
2024/04/19 01:41:54;;;;;;;2.40;0.87;;;;;;;;;;5419758;26;20494;-88
2024/04/19 01:44:20;;;;;;;5.03;0.80;;;;;;;;;;5419992;26;20448;-89
2024/04/19 01:46:46;;;;;;;2.50;0.97;;;;;;;;;;5418351;26;20496;-86
2024/04/19 01:49:12;;;;;;;3.53;1.00;;;;;;;;;;5417735;26;20550;-83
2024/04/19 01:51:38;;;;;;;5.17;1.30;;;;;;;;;;5418975;26;20966;-84
2024/04/19 01:54:04;;;;;;;3.17;1.10;;;;;;;;;;5419080;26;20506;-86
2024/04/19 01:56:30;;;;;;;7.10;2.33;;;;;;;;;;5418926;26;20447;-86
2024/04/19 01:58:56;;;;;;;4.43;1.63;;;;;;;;;;5419913;26;20454;-86
2024/04/19 02:01:22;;;;;;;6.40;1.07;;;;;;;;;;5428199;26;20455;-83
2024/04/19 02:03:47;;;;;;;3.23;1.30;;;;;;;;;;5420288;26;20868;-86
2024/04/19 02:06:14;;;;;;;5.83;1.37;;;;;;;;;;5419185;26;20557;-90
2024/04/19 02:08:40;;;;;;;5.07;1.60;;;;;;;;;;5419711;26;20439;-83
2024/04/19 02:11:06;;;;;;;3.40;1.50;;;;;;;;;;5419551;26;20437;-87
2024/04/19 02:13:32;;;;;;;4.47;1.30;;;;;;;;;;5419347;26;20976;-86
2024/04/19 02:15:58;;;;;;;3.80;1.90;;;;;;;;;;5419655;26;20569;-86
2024/04/19 02:18:24;;;;;;;3.13;1.20;;;;;;;;;;5419676;26;20456;-87
2024/04/19 02:20:50;;;;;;;4.90;0.63;;;;;;;;;;5416891;26;20883;-84
2024/04/19 02:23:39;;;;;;;4.03;0.87;;;;;;;;;;5427955;26;20580;-81
2024/04/19 02:26:05;;;;;;;6.70;1.77;;;;;;;;;;5416520;26;20518;-86
2024/04/19 02:31:20;;;;;;;2.27;1.10;;;;;;;;;;5455930;26;20488;-79
2024/04/19 02:33:46;;;;;;;5.10;1.13;;;;;;;;;;5454427;26;20447;-81
2024/04/19 02:36:12;;;;;;;2.80;0.83;;;;;;;;;;5453930;26;20451;-84
2024/04/19 02:38:38;;;;;;;4.90;1.40;;;;;;;;;;5455121;26;20499;-80
2024/04/19 02:41:04;;;;;;;4.13;1.53;;;;;;;;;;5454934;26;20574;-88
2024/04/19 02:43:30;;;;;;;3.47;1.70;;;;;;;;;;5453704;26;20491;-84
2024/04/19 02:45:56;;;;;;;5.43;1.57;;;;;;;;;;5452386;26;20989;-86
2024/04/19 02:48:22;;;;;;;5.07;1.87;;;;;;;;;;5428596;26;20521;-88
2024/04/19 02:50:53;;;;;;;5.87;2.70;;;;;;;;;;5417178;26;20446;-78
2024/04/19 02:53:22;;;;;;;4.63;2.13;;;;;;;;;;5416999;26;20526;-82
2024/04/19 02:55:49;;;;;;;5.77;1.80;;;;;;;;;;5418561;26;20498;-84
2024/04/19 02:58:14;;;;;;;4.10;1.17;;;;;;;;;;5416079;26;20446;-81
2024/04/19 03:00:41;;;;;;;2.73;1.03;;;;;;;;;;5417529;26;20783;-83
2024/04/19 03:03:13;;;;;;;3.53;1.87;;;;;;;;;;5416341;26;20449;-82
2024/04/19 03:05:39;;;;;;;2.83;1.13;;;;;;;;;;5417955;26;20496;-79
2024/04/19 03:08:08;;;;;;;1.83;1.10;;;;;;;;;;5386586;26;20456;-79
2024/04/19 03:10:38;;;;;;;2.50;0.87;;;;;;;;;;5417113;26;20468;-84
2024/04/19 03:13:04;;;;;;;3.50;2.40;;;;;;;;;;5417821;26;20969;-82
2024/04/19 03:15:30;;;;;;;3.93;1.60;;;;;;;;;;5417893;26;20571;-77
2024/04/19 03:17:56;;;;;;;6.90;2.80;;;;;;;;;;5417787;26;20851;-81
2024/04/19 03:20:22;;;;;;;2.70;1.30;;;;;;;;;;5417601;26;20457;-79
2024/04/19 03:22:47;;;;;;;5.63;2.00;;;;;;;;;;5416421;26;20461;-81
2024/04/19 03:25:13;;;;;;;1.83;1.30;;;;;;;;;;5418078;26;21033;-89
2024/04/19 03:27:39;;;;;;;4.13;1.80;;;;;;;;;;5418316;26;20467;-85
2024/04/19 03:30:05;;;;;;;4.37;1.73;;;;;;;;;;5417800;26;20505;-85
2024/04/19 03:32:31;;;;;;;4.43;2.10;;;;;;;;;;5417665;26;20450;-85
2024/04/19 03:34:58;;;;;;;3.10;1.50;;;;;;;;;;5414156;26;21021;-84
2024/04/19 03:37:24;;;;;;;4.30;2.00;;;;;;;;;;5414218;26;20453;-82
2024/04/19 03:39:50;;;;;;;3.87;2.57;;;;;;;;;;5414855;26;20456;-83
2024/04/19 03:42:20;;;;;;;3.27;1.73;;;;;;;;;;5413533;26;20461;-82
2024/04/19 03:47:30;;;;;;;3.57;1.73;;;;;;;;;;5415452;26;20512;-84
2024/04/19 03:49:56;;;;;;;3.40;2.37;;;;;;;;;;5416547;26;20449;-83
2024/04/19 03:52:22;;;;;;;3.20;2.90;;;;;;;;;;5417275;26;20552;-82
2024/04/19 03:54:48;;;;;;;4.70;2.77;;;;;;;;;;5384480;26;20972;-84
2024/04/19 03:57:14;;;;;;;4.87;2.47;;;;;;;;;;5415431;26;20495;-88
2024/04/19 03:59:40;;;;;;;2.43;2.00;;;;;;;;;;5416926;26;20772;-84
2024/04/19 04:02:05;;;;;;;3.53;1.57;;;;;;;;;;5416898;26;20513;-84
2024/04/19 04:04:31;;;;;;;2.80;1.87;;;;;;;;;;5416907;26;20485;-86
2024/04/19 04:06:58;;;;;;;4.07;1.67;;;;;;;;;;5414108;26;20544;-81
2024/04/19 04:09:24;;;;;;;6.60;2.43;;;;;;;;;;5416416;26;20567;-80
2024/04/19 04:11:50;;;;;;;3.70;2.47;;;;;;;;;;5414835;26;20485;-82
2024/04/19 04:14:16;;;;;;;3.43;2.73;;;;;;;;;;5416746;26;20796;-86
2024/04/19 04:16:42;;;;;;;3.33;2.43;;;;;;;;;;5416897;26;20512;-82
2024/04/19 04:19:08;;;;;;;4.10;2.53;;;;;;;;;;5416701;26;20456;-87
2024/04/19 04:21:34;;;;;;;4.47;2.50;;;;;;;;;;5414146;26;20897;-84
2024/04/19 04:24:00;;;;;;;4.23;2.70;;;;;;;;;;5414650;26;20456;-85
2024/04/19 04:26:26;;;;;;;2.87;2.57;;;;;;;;;;5416590;26;20449;-81
2024/04/19 04:28:51;;;;;;;3.13;2.73;;;;;;;;;;5414770;26;20988;-85
2024/04/19 04:31:17;;;;;;;2.70;2.43;;;;;;;;;;5417035;26;20448;-87
2024/04/19 04:33:43;;;;;;;3.03;2.20;;;;;;;;;;5417371;26;20502;-86
2024/04/19 04:36:09;;;;;;;2.80;2.10;;;;;;;;;;5416897;26;20449;-88
2024/04/19 04:38:35;;;;;;;4.10;2.27;;;;;;;;;;5417159;26;20497;-86
2024/04/19 04:41:01;;;;;;;3.20;2.50;;;;;;;;;;5416983;26;20485;-88
2024/04/19 04:43:27;;;;;;;3.67;2.50;;;;;;;;;;5416786;26;20451;-89
2024/04/19 04:45:53;;;;;;;4.07;3.67;;;;;;;;;;5416952;26;20464;-90
2024/04/19 04:48:18;;;;;;;4.23;2.47;;;;;;;;;;5416775;26;20445;-83
2024/04/19 04:50:44;;;;;;;5.07;3.60;;;;;;;;;;5416432;26;21100;-89
2024/04/19 04:53:10;;;;;;;6.97;2.90;;;;;;;;;;5416560;26;20504;-88
2024/04/19 04:55:36;;;;;;;3.77;3.03;;;;;;;;;;5415975;26;20465;-87
2024/04/19 04:58:04;;;;;;;4.37;2.97;;;;;;;;;;5412043;26;20882;-82
2024/04/19 05:00:30;;;;;;;3.70;3.10;;;;;;;;;;5410445;26;20520;-86
2024/04/19 05:03:04;;;;;;;7.10;2.60;;;;;;;;;;5415063;26;20459;-85
2024/04/19 05:05:30;;;;;;;3.70;2.60;;;;;;;;;;5403791;26;20471;-85
2024/04/19 05:07:56;;;;;;;5.33;2.30;;;;;;;;;;5419185;26;20519;-85
2024/04/19 05:10:22;;;;;;;3.70;3.20;;;;;;;;;;5414593;26;20572;-84
2024/04/19 05:12:48;;;;;;;2.53;1.93;;;;;;;;;;5418738;26;20465;-84
2024/04/19 05:15:14;;;;;;;3.30;2.20;;;;;;;;;;5416929;26;20469;-83
2024/04/19 05:17:40;;;;;;;3.23;1.50;;;;;;;;;;5417202;26;20479;-84
2024/04/19 05:20:06;;;;;;;4.10;2.63;;;;;;;;;;5418131;26;20519;-83
2024/04/19 05:22:37;;;;;;;3.77;2.40;;;;;;;;;;5419033;26;20473;-85
2024/04/19 05:25:04;;;;;;;6.20;2.77;;;;;;;;;;5418943;26;20583;-86
2024/04/19 05:27:30;;;;;;;3.10;1.77;;;;;;;;;;5414317;26;20858;-88
2024/04/19 05:29:56;;;;;;;3.00;2.13;;;;;;;;;;5418786;26;20510;-85
2024/04/19 05:32:22;;;;;;;3.60;2.53;;;;;;;;;;5419231;26;20520;-84
2024/04/19 05:34:48;;;;;;;2.30;1.80;;;;;;;;;;5418447;26;20464;-87
2024/04/19 05:37:14;;;;;;;2.00;1.60;;;;;;;;;;5418685;26;20513;-86
2024/04/19 05:39:40;;;;;;;2.20;1.60;;;;;;;;;;5418719;26;20522;-85
2024/04/19 05:42:06;;;;;;;2.27;1.40;;;;;;;;;;5418918;26;20461;-86
2024/04/19 05:44:32;;;;;;;1.87;1.40;;;;;;;;;;5418429;26;20461;-87
2024/04/19 05:46:58;;;;;;;1.60;1.03;;;;;;;;;;5418526;26;20517;-87
2024/04/19 05:49:24;;;;;;;2.00;1.50;;;;;;;;;;5416249;26;20469;-81
2024/04/19 05:51:50;;;;;;;2.40;1.33;;;;;;;;;;5418056;26;20522;-86
2024/04/19 05:54:16;;;;;;;2.00;1.57;;;;;;;;;;5418087;26;20583;-89
2024/04/19 05:56:42;;;;;;;3.17;0.97;;;;;;;;;;5418483;26;20470;-84
2024/04/19 05:59:08;;;;;;;2.50;2.30;;;;;;;;;;5416772;26;20446;-83
2024/04/19 06:01:34;;;;;;;2.13;1.90;;;;;;;;;;5418150;26;20723;-83
2024/04/19 06:04:00;;;;;;;2.00;1.27;;;;;;;;;;5418442;26;20546;-82
2024/04/19 06:06:25;;;;;;;2.90;2.00;;;;;;;;;;5417579;26;20516;-84
2024/04/19 06:08:51;;;;;;;2.50;1.50;;;;;;;;;;5418205;26;20505;-83
2024/04/19 06:11:17;;;;;;;3.33;1.80;;;;;;;;;;5418046;26;20503;-84
2024/04/19 06:13:44;;;;;;;3.20;1.90;;;;;;;;;;5418033;26;20510;-82
2024/04/19 06:16:10;;;;;;;3.10;1.60;;;;;;;;;;5413065;26;20471;-87
2024/04/19 06:18:36;;;;;;;3.13;2.03;;;;;;;;;;5415090;26;20468;-83
2024/04/19 06:21:02;;;;;;;2.93;2.40;;;;;;;;;;5415489;26;20468;-83
2024/04/19 06:23:28;;;;;;;2.97;2.57;;;;;;;;;;5417977;26;20946;-85
2024/04/19 06:25:55;;;;;;;2.57;2.00;;;;;;;;;;5416037;26;20504;-82
2024/04/19 06:28:21;;;;;;;2.33;1.87;;;;;;;;;;5417893;26;20521;-84
2024/04/19 06:30:48;;;;;;;4.13;1.60;;;;;;;;;;5418107;26;20468;-82
2024/04/19 06:33:14;;;;;;;2.70;1.43;;;;;;;;;;5417897;26;20504;-84
2024/04/19 06:35:40;;;;;;;2.00;1.77;;;;;;;;;;5417296;26;20465;-83
2024/04/19 06:38:07;;;;;;;2.10;1.60;;;;;;;;;;5417927;26;20995;-86
2024/04/19 06:40:33;;;;;;;2.53;2.03;;;;;;;;;;5417998;26;20525;-87
2024/04/19 06:42:59;;;;;;;2.80;1.80;;;;;;;;;;5417946;26;20460;-86
2024/04/19 06:45:25;;;;;;;2.80;2.03;;;;;;;;;;5417851;26;20836;-85
2024/04/19 06:47:51;;;;;;;2.40;1.87;;;;;;;;;;5407713;26;20453;-82
2024/04/19 06:50:17;;;;;;;1.73;1.57;;;;;;;;;;5414290;26;20834;-87
2024/04/19 06:52:42;;;;;;;2.50;1.70;;;;;;;;;;5417544;26;20460;-88
2024/04/19 06:55:10;;;;;;;2.50;1.73;;;;;;;;;;5417230;26;20461;-83
2024/04/19 06:57:36;;;;;;;2.37;1.67;;;;;;;;;;5417031;26;20458;-83
2024/04/19 07:00:02;;;;;;;3.10;1.97;;;;;;;;;;5402657;26;20869;-83
2024/04/19 07:02:28;;;;;;;2.60;1.93;;;;;;;;;;5414812;26;20467;-85
2024/04/19 07:04:53;;;;;;;2.93;2.30;;;;;;;;;;5416650;26;21016;-85
2024/04/19 07:07:19;;;;;;;4.23;3.07;;;;;;;;;;5417338;26;20575;-86
2024/04/19 07:09:45;;;;;;;2.50;2.30;;;;;;;;;;5415736;26;20848;-85
2024/04/19 07:12:11;;;;;;;2.80;2.07;;;;;;;;;;5415544;26;20519;-87
2024/04/19 07:14:37;;;;;;;3.30;2.30;;;;;;;;;;5417158;26;20473;-86
2024/04/19 07:17:03;;;;;;;3.60;3.30;;;;;;;;;;5417264;26;20465;-86
2024/04/19 07:19:29;;;;;;;3.40;3.10;;;;;;;;;;5416940;26;20832;-88
2024/04/19 07:21:55;;;;;;;2.63;2.03;;;;;;;;;;5416574;26;20522;-86
2024/04/19 07:24:21;;;;;;;3.93;3.63;;;;;;;;;;5416927;26;20820;-86
2024/04/19 07:26:47;;;;;;;3.70;2.50;;;;;;;;;;5417188;26;20533;-87
2024/04/19 07:29:13;;;;;;;4.53;3.17;;;;;;;;;;5416983;26;21119;-86
2024/04/19 07:31:39;;;;;;;3.73;3.40;;;;;;;;;;5417927;26;20471;-87
2024/04/19 07:34:04;;;;;;;5.47;4.10;;;;;;;;;;5415504;26;20498;-83
2024/04/19 07:36:31;;;;;;;4.10;3.70;;;;;;;;;;5419115;26;20525;-86
2024/04/19 07:38:57;;;;;;;5.23;4.03;;;;;;;;;;5413732;26;20474;-88
2024/04/19 07:41:23;;;;;;;6.80;4.10;;;;;;;;;;5425027;26;20589;-85
2024/04/19 07:43:48;;;;;;;3.87;3.47;;;;;;;;;;5417148;26;20523;-85
2024/04/19 07:46:16;;;;;;;4.77;4.30;;;;;;;;;;5417120;26;20834;-89
2024/04/19 07:48:42;;;;;;;4.33;3.93;;;;;;;;;;5415745;26;21036;-88
2024/04/19 07:51:08;;;;;;;4.87;4.37;;;;;;;;;;5416496;26;20500;-85
2024/04/19 07:53:34;;;;;;;4.77;4.13;;;;;;;;;;5415127;26;20459;-84
2024/04/19 07:55:59;;;;;;;5.53;4.93;;;;;;;;;;5417292;26;20506;-88
2024/04/19 07:58:26;;;;;;;4.90;4.50;;;;;;;;;;5416854;26;20465;-85
2024/04/19 08:00:55;;;;;;;5.20;4.23;;;;;;;;;;5416478;26;20479;-86
2024/04/19 08:03:21;;;;;;;5.53;4.30;;;;;;;;;;5416910;26;20456;-82
2024/04/19 08:05:47;;;;;;;3.63;3.30;;;;;;;;;;5416345;26;21029;-84
2024/04/19 08:08:13;;;;;;;4.47;3.77;;;;;;;;;;5414999;26;20462;-83
2024/04/19 08:10:39;;;;;;;6.43;3.87;;;;;;;;;;5416646;26;20449;-84
2024/04/19 08:13:08;;;;;;;5.87;4.43;;;;;;;;;;5416191;26;20466;-85
2024/04/19 08:15:34;;;;;;;6.17;3.37;;;;;;;;;;5415012;26;20507;-83
2024/04/19 08:17:59;;;;;;;7.70;3.93;;;;;;;;;;5416377;26;21032;-87
2024/04/19 08:20:25;;;;;;;3.33;3.03;;;;;;;;;;5415604;26;20448;-84
2024/04/19 08:22:51;;;;;;;6.67;2.60;;;;;;;;;;5416452;26;20447;-88
2024/04/19 08:25:17;;;;;;;5.43;3.00;;;;;;;;;;5415888;26;20970;-86
2024/04/19 08:27:43;;;;;;;2.90;1.50;;;;;;;;;;5416344;26;21026;-84
2024/04/19 08:30:10;;;;;;;3.20;1.40;;;;;;;;;;5416626;26;20461;-86
2024/04/19 08:32:36;;;;;;;6.13;1.63;;;;;;;;;;5416555;26;20220;-86
2024/04/19 08:35:03;;;;;;;3.67;1.97;;;;;;;;;;5405075;26;20504;-84
2024/04/19 08:37:31;;;;;;;3.97;1.40;;;;;;;;;;5388030;26;20453;-87
2024/04/19 08:39:57;;;;;;;4.43;1.50;;;;;;;;;;5381341;26;20789;-87
2024/04/19 08:42:24;;;;;;;4.43;1.60;;;;;;;;;;5384339;26;20441;-86
2024/04/19 08:44:50;;;;;;;3.73;0.87;;;;;;;;;;5388944;26;20460;-90
2024/04/19 08:47:17;;;;;;;2.33;0.87;;;;;;;;;;5419707;26;20441;-89
2024/04/19 08:49:44;;;;;;;1.73;0.63;;;;;;;;;;5419346;26;20496;-83
2024/04/19 08:52:10;;;;;;;3.00;0.60;;;;;;;;;;5419534;26;20454;-88
2024/04/19 08:54:36;;;;;;;1.60;0.57;;;;;;;;;;5419358;26;20455;-82
2024/04/19 08:57:04;;;;;;;2.03;0.60;;;;;;;;;;5417635;26;20510;-84
2024/04/19 08:59:31;;;;;;;3.60;0.60;;;;;;;;;;5419442;26;20439;-86
2024/04/19 09:01:57;;;;;;;3.83;0.57;;;;;;;;;;5419536;26;20447;-86
2024/04/19 09:04:23;;;;;;;4.60;0.70;;;;;;;;;;5418620;26;20463;-90
2024/04/19 09:06:49;;;;;;;6.00;1.60;;;;;;;;;;5419947;26;20833;-82
2024/04/19 09:09:16;;;;;;;7.70;0.60;;;;;;;;;;5417728;26;20446;-83
2024/04/19 09:11:44;;;;;;;6.37;1.10;;;;;;;;;;5417874;26;20224;-80
2024/04/19 09:14:10;;;;;;;6.67;1.03;;;;;;;;;;5419758;26;20520;-92
2024/04/19 09:16:36;;;;;;;6.87;0.70;;;;;;;;;;5417392;26;21101;-91
2024/04/19 09:19:02;;;;;;;5.43;0.70;;;;;;;;;;5397513;26;20472;-86
2024/04/19 09:21:28;;;;;;;2.17;0.60;;;;;;;;;;5383404;26;20477;-89
2024/04/19 09:23:55;;;;;;;7.47;1.27;;;;;;;;;;5383332;26;20503;-87
2024/04/19 09:26:22;;;;;;;4.43;0.70;;;;;;;;;;5382755;26;20516;-85
2024/04/19 09:28:48;;;;;;;5.07;0.50;;;;;;;;;;5382969;26;20505;-86
2024/04/19 09:31:14;;;;;;;2.67;0.70;;;;;;;;;;5383436;26;20443;-90
2024/04/19 09:33:41;;;;;;;6.03;0.90;;;;;;;;;;5382822;26;20860;-88
2024/04/19 09:36:07;;;;;;;3.40;0.30;;;;;;;;;;5383327;26;20459;-85
2024/04/19 09:38:36;;;;;;;1.33;0.20;;;;;;;;;;5384298;26;20568;-89
2024/04/19 09:41:02;;;;;;;0.80;0.30;;;;;;;;;;5384785;26;20447;-86
2024/04/19 09:43:31;;;;;;;0.50;0.20;;;;;;;;;;5395482;26;20545;-88
2024/04/19 09:45:57;;;;;;;3.77;0.30;;;;;;;;;;5419454;26;20528;-88
2024/04/19 09:48:28;;;;;;;0.83;0.30;;;;;;;;;;5412109;26;20846;-83
2024/04/19 09:50:57;;;;;;;1.37;0.30;;;;;;;;;;5385234;26;20861;-86
2024/04/19 09:53:31;;;;;;;2.10;0.37;;;;;;;;;;5391556;26;20469;-83
2024/04/19 09:56:06;;;;;;;4.57;0.20;;;;;;;;;;5382991;26;20501;-83
2024/04/19 09:58:32;;;;;;;0.93;0.30;;;;;;;;;;5383073;26;20451;-83
2024/04/19 10:00:59;;;;;;;2.30;0.67;;;;;;;;;;5401403;26;20578;-87
2024/04/19 10:03:25;;;;;;;2.23;0.30;;;;;;;;;;5418513;26;20449;-82
2024/04/19 10:05:51;;;;;;;5.43;0.73;;;;;;;;;;5417111;26;20862;-80
2024/04/19 10:08:17;;;;;;;5.57;1.07;;;;;;;;;;5417596;26;20514;-78
2024/04/19 10:10:43;;;;;;;2.70;0.70;;;;;;;;;;5415928;26;20523;-83
2024/04/19 10:13:09;;;;;;;2.20;0.87;;;;;;;;;;5417723;26;20577;-81
2024/04/19 10:15:35;;;;;;;5.73;1.20;;;;;;;;;;5418249;26;20220;-84
2024/04/19 10:18:04;;;;;;;3.30;1.43;;;;;;;;;;5418181;26;20485;-83
2024/04/19 10:20:30;;;;;;;8.57;2.27;;;;;;;;;;5417982;26;20461;-83
2024/04/19 10:22:58;;;;;;;4.63;1.30;;;;;;;;;;5416885;26;20447;-84
2024/04/19 10:25:24;;;;;;;2.77;0.87;;;;;;;;;;5416502;26;20434;-85
2024/04/19 10:27:50;;;;;;;4.93;0.97;;;;;;;;;;5401051;26;20556;-86
2024/04/19 10:30:17;;;;;;;4.13;0.80;;;;;;;;;;5382968;26;20934;-85
2024/04/19 10:32:43;;;;;;;5.63;0.60;;;;;;;;;;5404146;26;20453;-82
2024/04/19 10:35:15;;;;;;;2.50;0.80;;;;;;;;;;5398119;26;20532;-87
2024/04/19 10:37:41;;;;;;;8.10;1.20;;;;;;;;;;5404832;26;20452;-85
2024/04/19 10:40:07;;;;;;;2.90;0.87;;;;;;;;;;5379213;26;20492;-84
2024/04/19 10:42:33;;;;;;;1.37;0.40;;;;;;;;;;5401355;26;20332;-87
2024/04/19 10:44:59;;;;;;;4.93;1.13;;;;;;;;;;5390319;26;20770;-86
2024/04/19 10:47:25;;;;;;;3.47;1.03;;;;;;;;;;5406689;26;20632;-87
2024/04/19 10:49:52;;;;;;;3.73;0.63;;;;;;;;;;5400805;26;20450;-87
2024/04/19 10:52:22;;;;;;;2.77;0.60;;;;;;;;;;5382485;26;20631;-85
2024/04/19 10:54:48;;;;;;;1.83;0.50;;;;;;;;;;5382609;26;21015;-86
2024/04/19 10:57:14;;;;;;;2.30;0.70;;;;;;;;;;5414525;26;20444;-87
2024/04/19 10:59:40;;;;;;;3.63;0.57;;;;;;;;;;5418097;26;20442;-85
2024/04/19 11:02:07;;;;;;;4.93;0.93;;;;;;;;;;5418218;26;20214;-83
2024/04/19 11:04:33;;;;;;;2.50;0.30;;;;;;;;;;5416940;26;20505;-84
2024/04/19 11:06:59;;;;;;;2.27;0.50;;;;;;;;;;5414147;26;20457;-86
2024/04/19 11:09:25;;;;;;;5.27;1.00;;;;;;;;;;5382240;26;20504;-85
2024/04/19 11:11:51;;;;;;;3.33;0.73;;;;;;;;;;5382416;26;20220;-85
2024/04/19 11:14:18;;;;;;;5.03;0.87;;;;;;;;;;5382450;26;20474;-84
2024/04/19 11:16:44;;;;;;;4.17;0.50;;;;;;;;;;5382327;26;20448;-88
2024/04/19 11:19:10;;;;;;;1.80;0.63;;;;;;;;;;5382047;26;20508;-87
2024/04/19 11:21:36;;;;;;;3.70;0.73;;;;;;;;;;5382090;26;20516;-84
2024/04/19 11:24:03;;;;;;;4.03;0.60;;;;;;;;;;5382452;26;20441;-88
2024/04/19 11:26:28;;;;;;;4.47;0.80;;;;;;;;;;5383877;26;20516;-87
2024/04/19 11:28:55;;;;;;;3.97;1.20;;;;;;;;;;5390128;26;20452;-85
2024/04/19 11:31:21;;;;;;;4.10;0.47;;;;;;;;;;5381530;26;20447;-85
2024/04/19 11:33:53;;;;;;;5.03;1.20;;;;;;;;;;5400624;26;20457;-86
2024/04/19 11:36:19;;;;;;;6.13;1.10;;;;;;;;;;5417102;26;20501;-89
2024/04/19 11:38:45;;;;;;;7.37;1.30;;;;;;;;;;5417387;26;20861;-86
2024/04/19 11:41:13;;;;;;;7.13;1.77;;;;;;;;;;5417413;26;20484;-88
2024/04/19 11:43:40;;;;;;;5.87;0.67;;;;;;;;;;5417075;26;20264;-84
2024/04/19 11:46:06;;;;;;;5.80;1.23;;;;;;;;;;5417086;26;20452;-89
2024/04/19 11:48:31;;;;;;;6.17;1.10;;;;;;;;;;5417194;26;20830;-85
2024/04/19 11:50:57;;;;;;;3.33;1.30;;;;;;;;;;5417105;26;20459;-81
2024/04/19 11:53:24;;;;;;;3.30;0.93;;;;;;;;;;5416732;26;20702;-84
2024/04/19 11:55:52;;;;;;;3.60;1.37;;;;;;;;;;5414858;26;20463;-86
2024/04/19 11:58:18;;;;;;;6.20;0.50;;;;;;;;;;5417090;26;20513;-87
2024/04/19 12:00:45;;;;;;;4.13;0.97;;;;;;;;;;5414967;26;20445;-86
2024/04/19 12:03:10;;;;;;;4.60;0.80;;;;;;;;;;5416848;26;21040;-85
2024/04/19 12:05:37;;;;;;;4.17;0.93;;;;;;;;;;5408702;26;20505;-88
2024/04/19 12:08:03;;;;;;;6.07;1.80;;;;;;;;;;5415179;26;20231;-84
2024/04/19 12:10:29;;;;;;;5.07;1.20;;;;;;;;;;5417227;26;20457;-82
2024/04/19 12:12:55;;;;;;;7.07;1.03;;;;;;;;;;5416184;26;20551;-82
2024/04/19 12:15:21;;;;;;;3.53;1.10;;;;;;;;;;5418088;26;20448;-90
2024/04/19 12:17:47;;;;;;;5.53;0.70;;;;;;;;;;5420598;26;20581;-83
2024/04/19 12:20:13;;;;;;;5.60;0.87;;;;;;;;;;5418625;26;20493;-81
2024/04/19 12:22:39;;;;;;;8.60;1.03;;;;;;;;;;5419745;26;20224;-81
2024/04/19 12:25:05;;;;;;;3.67;1.40;;;;;;;;;;5418880;26;20454;-81
2024/04/19 12:27:31;;;;;;;4.37;0.97;;;;;;;;;;5419417;26;21009;-82
2024/04/19 12:29:57;;;;;;;7.33;1.30;;;;;;;;;;5419585;26;20493;-80
2024/04/19 12:32:23;;;;;;;5.43;1.23;;;;;;;;;;5406608;26;20526;-84
2024/04/19 12:34:49;;;;;;;6.07;1.63;;;;;;;;;;5392426;26;20229;-81
2024/04/19 12:37:15;;;;;;;10.13;0.90;;;;;;;;;;5385546;26;20468;-80
2024/04/19 12:39:41;;;;;;;8.93;1.67;;;;;;;;;;5384129;26;20493;-80
2024/04/19 12:42:07;;;;;;;7.80;1.27;;;;;;;;;;5382442;26;20445;-79
2024/04/19 12:44:33;;;;;;;9.07;1.60;;;;;;;;;;5384153;26;20488;-80
2024/04/19 12:46:59;;;;;;;8.13;1.00;;;;;;;;;;5377267;26;20462;-89
2024/04/19 12:49:25;;;;;;;8.00;1.03;;;;;;;;;;5384178;26;20456;-84
2024/04/19 12:51:54;;;;;;;2.60;0.60;;;;;;;;;;5384738;26;20528;-87
2024/04/19 12:54:20;;;;;;;5.53;1.10;;;;;;;;;;5384473;26;20445;-87
2024/04/19 12:56:46;;;;;;;5.67;0.93;;;;;;;;;;5384311;26;20855;-87
2024/04/19 12:59:13;;;;;;;4.30;1.07;;;;;;;;;;5383895;26;20259;-82
2024/04/19 13:01:38;;;;;;;5.10;1.07;;;;;;;;;;5384094;26;20442;-88
2024/04/19 13:04:05;;;;;;;3.00;0.77;;;;;;;;;;5383826;26;20859;-88
2024/04/19 13:06:32;;;;;;;5.20;1.20;;;;;;;;;;5384330;26;20316;-87
2024/04/19 13:08:58;;;;;;;5.93;1.33;;;;;;;;;;5382832;26;20509;-86
2024/04/19 13:11:24;;;;;;;5.27;1.27;;;;;;;;;;5381129;26;20462;-86
2024/04/19 13:13:54;;;;;;;4.80;1.50;;;;;;;;;;5384089;26;20450;-91
2024/04/19 13:16:20;;;;;;;4.20;1.03;;;;;;;;;;5384008;26;20224;-90
2024/04/19 13:18:46;;;;;;;2.50;0.90;;;;;;;;;;5384514;26;20565;-88
2024/04/19 13:21:12;;;;;;;6.80;1.40;;;;;;;;;;5384042;26;20473;-87
2024/04/19 13:23:38;;;;;;;5.60;1.17;;;;;;;;;;5387426;26;20449;-88
2024/04/19 13:26:04;;;;;;;6.07;1.37;;;;;;;;;;5382569;26;20527;-86
2024/04/19 13:28:30;;;;;;;7.37;1.03;;;;;;;;;;5383035;26;20518;-88
2024/04/19 13:30:56;;;;;;;7.40;1.30;;;;;;;;;;5383365;26;20803;-89
2024/04/19 13:33:24;;;;;;;6.03;1.47;;;;;;;;;;5383195;26;20315;-85
2024/04/19 13:35:50;;;;;;;4.47;0.80;;;;;;;;;;5385585;26;20444;-89
2024/04/19 13:38:16;;;;;;;6.40;1.30;;;;;;;;;;5385069;26;20511;-91
2024/04/19 13:40:42;;;;;;;3.20;1.13;;;;;;;;;;5382924;26;20455;-86
2024/04/19 13:43:08;;;;;;;5.13;1.40;;;;;;;;;;5384184;26;20553;-84
2024/04/19 13:45:34;;;;;;;6.20;1.33;;;;;;;;;;5383087;26;20526;-80
2024/04/19 13:48:00;;;;;;;11.90;1.80;;;;;;;;;;5395051;26;20509;-84
2024/04/19 13:50:26;;;;;;;16.40;3.13;;;;;;;;;;5382725;26;20503;-85
2024/04/19 13:52:52;;;;;;;9.90;2.40;;;;;;;;;;5414738;26;20468;-86
2024/04/19 13:55:18;;;;;;;7.60;1.20;;;;;;;;;;5416994;26;20515;-83
2024/04/19 13:57:44;;;;;;;4.80;1.30;;;;;;;;;;5418765;26;20787;-86
2024/04/19 14:00:11;;;;;;;5.47;0.80;;;;;;;;;;5418818;26;20512;-85
2024/04/19 14:02:37;;;;;;;5.07;0.80;;;;;;;;;;5418271;26;20586;-84
2024/04/19 14:05:03;;;;;;;5.27;0.53;;;;;;;;;;5417660;26;20896;-87
2024/04/19 14:07:29;;;;;;;8.00;0.60;;;;;;;;;;5418313;26;20453;-81
2024/04/19 14:09:55;;;;;;;3.60;0.63;;;;;;;;;;5418486;26;20461;-81
2024/04/19 14:12:22;;;;;;;4.90;0.73;;;;;;;;;;5418630;26;20226;-80
2024/04/19 14:14:48;;;;;;;5.40;0.60;;;;;;;;;;5418408;26;20230;-80
2024/04/19 14:17:14;;;;;;;2.30;0.70;;;;;;;;;;5418391;26;20649;-80
2024/04/19 14:19:40;;;;;;;7.40;1.83;;;;;;;;;;5417811;26;20840;-81
2024/04/19 14:22:06;;;;;;;4.53;0.87;;;;;;;;;;5418187;26;20528;-85
2024/04/19 14:24:31;;;;;;;8.17;1.37;;;;;;;;;;5418306;26;20553;-82
2024/04/19 14:26:57;;;;;;;5.17;1.03;;;;;;;;;;5418177;26;20447;-83
2024/04/19 14:29:23;;;;;;;7.73;1.73;;;;;;;;;;5418439;26;20501;-84
2024/04/19 14:31:49;;;;;;;8.53;1.37;;;;;;;;;;5418334;26;20570;-83
2024/04/19 14:34:15;;;;;;;4.23;0.30;;;;;;;;;;5418057;26;20480;-87
2024/04/19 14:36:43;;;;;;;4.10;1.03;;;;;;;;;;5417645;26;20460;-84
2024/04/19 14:39:09;;;;;;;8.13;1.00;;;;;;;;;;5415410;26;20788;-85
2024/04/19 14:41:35;;;;;;;5.43;0.50;;;;;;;;;;5413230;26;20463;-88
2024/04/19 14:44:01;;;;;;;3.53;0.80;;;;;;;;;;5415998;26;20582;-86